Data for 05/29/2010

Time Sea-Level Adjusted Pressure Absolute Pressure Temperature Relative Humidity Dew Point   
(mb) (inHg) (mb) (inHg) (C) (F) (%) (C) (F)
00:05 1015 29.97 845 24.95 4 39.3 93 3 37.4
00:10 1015 29.97 845 24.95 4 39.1 94 3 37.4
00:15 1015 29.97 844 24.92 4 39.2 93 3 37.5
00:20 1015 29.97 844 24.92 4 39.3 93 3.1 37.5
00:25 1015 29.97 845 24.95 4 39.2 92 2.9 37.2
00:30 1015 29.97 844 24.92 3.9 39 93 2.8 37.1
00:35 1015 29.97 844 24.92 3.9 39 93 2.8 37.1
00:40 1015 29.97 844 24.92 3.9 39.1 93 2.9 37.1
00:45 1015 29.97 844 24.92 3.8 38.9 93 2.8 37.1
00:50 1015 29.97 844 24.92 3.7 38.7 93 2.7 36.9
00:55 1015 29.97 844 24.92 3.6 38.5 94 2.8 37
01:00 1015 29.97 844 24.92 3.7 38.7 94 2.8 37
01:05 1015 29.97 844 24.92 3.7 38.6 93 2.7 36.9
01:10 1015 29.97 845 24.95 3.6 38.5 94 2.7 36.8
01:15 1015 29.97 845 24.95 3.6 38.5 94 2.7 36.8
01:20 1015 29.97 844 24.92 3.6 38.5 94 2.7 36.9
01:25 1015 29.97 844 24.92 3.6 38.5 94 2.7 36.8
01:30 1015 29.97 844 24.92 3.6 38.5 93 2.6 36.6
01:35 1015 29.97 845 24.95 3.5 38.3 93 2.5 36.6
01:40 1015 29.97 845 24.95 3.5 38.3 93 2.6 36.6
01:45 1015 29.97 845 24.95 3.5 38.3 94 2.6 36.6
01:50 1015 29.97 845 24.95 3.4 38.2 94 2.6 36.7
01:55 1015 29.97 845 24.95 3.5 38.3 95 2.7 36.9
02:00 1016 30 845 24.95 3.5 38.2 94 2.6 36.7
02:05 1015 29.97 845 24.95 3.4 38.1 94 2.5 36.4
02:10 1015 29.97 845 24.95 3.4 38.1 94 2.5 36.5
02:15 1015 29.97 845 24.95 3.4 38 93 2.4 36.3
02:20 1016 30 845 24.95 3.3 38 93 2.3 36.1
02:25 1016 30 845 24.95 3.2 37.8 92 2.1 35.8
02:30 1016 30 845 24.95 3.1 37.6 92 2 35.6
02:35 1016 30 845 24.95 3 37.4 93 1.9 35.5
02:40 1016 30 845 24.95 2.9 37.3 92 1.8 35.2
02:45 1016 30 845 24.95 2.9 37.1 93 1.8 35.2
02:50 1016 30 845 24.95 2.8 37.1 93 1.8 35.2
02:55 1016 30 845 24.95 2.8 37.1 92 1.7 35
03:00 1016 30 845 24.95 2.7 36.9 93 1.7 35
03:05 1016 30 845 24.95 2.7 36.9 93 1.7 35
03:10 1016 30 845 24.95 2.7 36.8 93 1.7 35.1
03:15 1016 30 845 24.95 2.7 36.8 94 1.8 35.2
03:20 1016 30 845 24.95 2.7 36.8 94 1.8 35.2
03:25 1016 30 845 24.95 2.6 36.6 94 1.7 35.1
03:30 1016 30 845 24.95 2.5 36.4 94 1.6 34.9
03:35 1016 30 845 24.95 2.4 36.4 94 1.6 34.9
03:40 1016 30 845 24.95 2.3 36.1 95 1.5 34.7
03:45 1016 30 845 24.95 2.2 36 95 1.4 34.6
03:50 1016 30 845 24.95 2.1 35.9 95 1.4 34.6
03:55 1016 30 845 24.95 2.2 35.9 95 1.4 34.6
04:00 1016 30 846 24.98 2.1 35.8 95 1.4 34.5
04:05 1016 30 846 24.98 2.2 36 95 1.5 34.6
04:10 1016 30 846 24.98 2.2 36 95 1.5 34.7
04:15 1016 30 846 24.98 2.2 35.9 94 1.4 34.4
04:20 1016 30 846 24.98 2.2 35.9 94 1.4 34.4
04:25 1016 30 846 24.98 2.2 35.9 94 1.4 34.5
04:30 1017 30.03 846 24.98 2.2 36 94 1.3 34.4
04:35 1017 30.03 846 24.98 2.1 35.8 94 1.2 34.2
04:40 1017 30.03 846 24.98 2.1 35.7 94 1.2 34.2
04:45 1017 30.03 846 24.98 2 35.6 94 1.2 34.1
04:50 1017 30.03 846 24.98 1.9 35.5 95 1.2 34.1
04:55 1017 30.03 846 24.98 2 35.5 94 1.1 34
05:00 1017 30.03 846 24.98 1.9 35.4 94 1.1 33.9
05:05 1017 30.03 846 24.98 2 35.5 94 1.1 34
05:10 1017 30.03 846 24.98 2 35.5 94 1.2 34.1
05:15 1017 30.03 846 24.98 2 35.5 95 1.2 34.1
05:20 1017 30.03 846 24.98 2 35.7 95 1.3 34.4
05:25 1017 30.03 846 24.98 2.1 35.7 95 1.4 34.5
05:30 1017 30.03 846 24.98 2.1 35.7 95 1.4 34.5
05:35 1017 30.03 846 24.98 2.1 35.7 95 1.3 34.3
05:40 1017 30.03 846 24.98 1.9 35.4 95 1.1 34
05:45 1017 30.03 846 24.98 1.7 35.1 95 1 33.8
05:50 1017 30.03 846 24.98 1.6 34.8 95 0.9 33.6
05:55 1017 30.03 846 24.98 1.4 34.5 95 0.7 33.3
06:00 1017 30.03 846 24.98 1.1 34 95 0.5 32.8
06:05 1017 30.03 846 24.98 1 33.7 96 0.4 32.7
06:10 1017 30.03 847 25.01 0.8 33.5 96 0.3 32.5
06:15 1017 30.03 847 25.01 0.6 33.2 96 0.1 32.2
06:20 1018 30.06 847 25.01 0.5 33 97 0.1 32.1
06:25 1018 30.06 847 25.01 0.5 32.9 97 0 32
06:30 1018 30.06 847 25.01 0.4 32.8 97 0 32.1
06:35 1018 30.06 847 25.01 0.4 32.8 97 0.1 32.1
06:40 1018 30.06 847 25.01 0.4 32.8 97 0 32.1
06:45 1018 30.06 847 25.01 0.5 32.8 97 0.1 32.2
06:50 1018 30.06 847 25.01 0.4 32.7 97 0 32.1
06:55 1018 30.06 847 25.01 0.4 32.7 97 -0 32
07:00 1018 30.06 847 25.01 0.4 32.7 97 0 32.1
07:05 1018 30.06 847 25.01 0.4 32.8 97 0.1 32.1
07:10 1018 30.06 847 25.01 0.4 32.8 98 0.1 32.2
07:15 1018 30.06 847 25.01 0.5 32.9 97 0.1 32.3
07:20 1018 30.06 847 25.01 0.5 33 98 0.2 32.3
07:25 1018 30.06 848 25.04 0.5 33 97 0.1 32.2
07:30 1018 30.06 848 25.04 0.5 32.9 97 0.1 32.2
07:35 1018 30.06 848 25.04 0.5 32.9 97 0.1 32.2
07:40 1018 30.06 848 25.04 0.5 33 97 0.1 32.2
07:45 1019 30.09 848 25.04 0.7 33.2 97 0.3 32.5
07:50 1019 30.09 848 25.04 0.8 33.4 97 0.3 32.6
07:55 1019 30.09 848 25.04 0.8 33.4 96 0.3 32.5
08:00 1019 30.09 848 25.04 0.8 33.5 97 0.3 32.6
08:05 1019 30.09 848 25.04 0.9 33.7 96 0.4 32.7
08:10 1019 30.09 848 25.04 1 33.8 96 0.4 32.7
08:15 1019 30.09 848 25.04 0.9 33.6 96 0.3 32.5
08:20 1019 30.09 848 25.04 1 33.7 96 0.4 32.8
08:25 1019 30.09 848 25.04 1.1 34 96 0.5 32.9
08:30 1019 30.09 848 25.04 1.1 34 95 0.4 32.8
08:35 1019 30.09 848 25.04 1.1 34 96 0.5 32.9
08:40 1019 30.09 848 25.04 1.2 34.2 96 0.6 33.1
08:45 1019 30.09 848 25.04 1.5 34.6 95 0.8 33.4
08:50 1019 30.09 848 25.04 1.5 34.7 94 0.7 33.3
08:55 1019 30.09 848 25.04 1.6 34.9 94 0.8 33.4
09:00 1019 30.09 848 25.04 1.7 35 95 0.9 33.6
09:05 1019 30.09 848 25.04 2.1 35.7 92 0.9 33.7
09:10 1019 30.09 848 25.04 2.1 35.8 93 1 33.9
09:15 1019 30.09 848 25.04 2.4 36.3 91 1.1 33.9
09:20 1019 30.09 848 25.04 2.8 37 92 1.6 34.9
09:25 1019 30.09 848 25.04 3.6 38.5 88 1.8 35.3
09:30 1019 30.09 848 25.04 3.7 38.7 86 1.6 34.9
09:35 1019 30.09 848 25.04 3.7 38.7 84 1.3 34.4
09:40 1019 30.09 848 25.04 3.7 38.7 89 2.1 35.7
09:45 1019 30.09 848 25.04 4.6 40.2 82 1.8 35.3
09:50 1019 30.09 848 25.04 4.6 40.2 84 2.1 35.8
09:55 1019 30.09 848 25.04 4.9 40.8 80 1.7 35.1
10:00 1019 30.09 849 25.07 5 41 80 1.9 35.4
10:05 1019 30.09 849 25.07 5 40.9 79 1.6 34.9
10:10 1019 30.09 849 25.07 5.3 41.5 80 2.2 36
10:15 1019 30.09 849 25.07 5.5 41.9 80 2.3 36.1
10:20 1019 30.09 849 25.07 5.7 42.3 77 2.1 35.8
10:25 1019 30.09 849 25.07 5.8 42.4 78 2.2 35.9
10:30 1019 30.09 849 25.07 5.7 42.3 80 2.5 36.6
10:35 1019 30.09 849 25.07 6.1 43.1 70 1.2 34.1
10:40 1019 30.09 849 25.07 5.9 42.6 75 1.7 35.1
10:45 1019 30.09 849 25.07 6.3 43.3 76 2.4 36.3
10:50 1019 30.09 848 25.04 7.2 44.9 68 1.7 35.1
10:55 1019 30.09 848 25.04 6.2 43.1 75 2.1 35.8
11:00 1019 30.09 849 25.07 6.1 42.9 69 0.9 33.7
11:05 1019 30.09 848 25.04 6.4 43.5 69 1.1 34
11:10 1019 30.09 848 25.04 7.3 45.1 65 1.3 34.3
11:15 1019 30.09 848 25.04 7.1 44.7 69 1.7 35.1
11:20 1019 30.09 848 25.04 7.1 44.7 69 1.9 35.4
11:25 1019 30.09 848 25.04 7 44.6 66 1 33.9
11:30 1019 30.09 848 25.04 7.9 46.3 63 1.4 34.6
11:35 1019 30.09 849 25.07 8 46.4 63 1.5 34.6
11:40 1019 30.09 849 25.07 7.7 45.8 65 1.4 34.6
11:45 1019 30.09 848 25.04 7.9 46.2 62 1 33.8
11:50 1019 30.09 848 25.04 8.2 46.7 63 1.7 35
11:55 1019 30.09 848 25.04 9 48.1 59 1.5 34.7
12:00 1019 30.09 848 25.04 9 48.1 57 0.9 33.7
12:05 1019 30.09 848 25.04 9.7 49.5 56 1.3 34.3
12:10 1019 30.09 848 25.04 10 50 55 1.3 34.4
12:15 1019 30.09 848 25.04 9.4 49 58 1.5 34.7
12:20 1019 30.09 848 25.04 9.3 48.7 58 1.4 34.4
12:25 1019 30.09 848 25.04 9.6 49.3 55 0.9 33.7
12:30 1019 30.09 848 25.04 10.1 50.3 54 1.3 34.3
12:35 1019 30.09 848 25.04 10.2 50.3 57 2 35.5
12:40 1019 30.09 848 25.04 10 50 53 1 33.8
12:45 1019 30.09 848 25.04 10.7 51.2 51 1.1 34
12:50 1019 30.09 848 25.04 10.8 51.5 50 0.9 33.7
12:55 1019 30.09 848 25.04 10.3 50.5 52 1 33.7
13:00 1019 30.09 848 25.04 9.9 49.7 52 0.5 32.8
13:05 1019 30.09 848 25.04 10.2 50.4 52 1 33.7
13:10 1019 30.09 848 25.04 10.7 51.3 51 1.1 34
13:15 1019 30.09 848 25.04 11.6 52.9 48 1 33.7
13:20 1019 30.09 848 25.04 12.1 53.7 47 1.1 34
13:25 1019 30.09 848 25.04 11.9 53.3 48 1.3 34.3
13:30 1019 30.09 848 25.04 12.2 53.9 45 0.7 33.3
13:35 1019 30.09 848 25.04 12.2 53.9 46 1.1 33.9
13:40 1019 30.09 848 25.04 12.6 54.7 45 1 33.8
13:45 1019 30.09 848 25.04 12.5 54.6 45 1 33.7
13:50 1019 30.09 848 25.04 12.1 53.7 46 1 33.8
13:55 1019 30.09 848 25.04 11.8 53.3 47 0.9 33.6
14:00 1019 30.09 848 25.04 12.4 54.3 47 1.4 34.5
14:05 1019 30.09 848 25.04 12.2 54 46 1 33.8
14:10 1019 30.09 848 25.04 12.2 53.9 46 1 33.9
14:15 1019 30.09 848 25.04 12.4 54.2 47 1.5 34.6
14:20 1019 30.09 848 25.04 12.6 54.6 46 1.4 34.6
14:25 1019 30.09 848 25.04 13.4 56 43 1.1 34
14:30 1019 30.09 848 25.04 13.8 56.8 41 0.8 33.4
14:35 1019 30.09 848 25.04 13.2 55.8 42 0.7 33.2
14:40 1019 30.09 848 25.04 13.2 55.7 40 -0.1 31.8
14:45 1019 30.09 848 25.04 13.2 55.7 41 0.3 32.5
14:50 1019 30.09 848 25.04 13 55.5 43 0.9 33.6
14:55 1019 30.09 848 25.04 12.2 54 47 1.2 34.2
15:00 1019 30.09 848 25.04 12 53.5 50 2 35.7
15:05 1019 30.09 848 25.04 11.8 53.2 51 2 35.7
15:10 1019 30.09 848 25.04 11.2 52.1 53 1.9 35.5
15:15 1019 30.09 848 25.04 10.6 51.1 59 2.9 37.2
15:20 1019 30.09 849 25.07 10 49.9 61 2.9 37.3
15:25 1019 30.09 849 25.07 9.3 48.7 62 2.4 36.3
15:30 1020 30.12 849 25.07 9.1 48.3 68 3.4 38.2
15:35 1020 30.12 849 25.07 8.7 47.6 74 4.2 39.6
15:40 1020 30.12 849 25.07 8.3 46.9 75 4.2 39.5
15:45 1020 30.12 849 25.07 8.2 46.7 76 4.1 39.4
15:50 1020 30.12 849 25.07 8.4 47.2 74 4 39.2
15:55 1020 30.12 849 25.07 8.8 47.8 69 3.4 38.1
16:00 1020 30.12 849 25.07 9.2 48.5 68 3.6 38.5
16:05 1019 30.09 849 25.07 10.3 50.6 57 2.3 36.2
16:10 1019 30.09 849 25.07 10.9 51.6 57 2.8 37.1
16:15 1020 30.12 849 25.07 11 51.8 60 3.6 38.5
16:20 1020 30.12 849 25.07 11.1 52 60 3.8 38.8
16:25 1020 30.12 849 25.07 10.7 51.3 61 3.6 38.5
16:30 1020 30.12 849 25.07 10.1 50.2 71 5.1 41.1
16:35 1020 30.12 849 25.07 8.3 46.9 76 4.3 39.7
16:40 1020 30.12 849 25.07 7.2 45 82 4.3 39.8
16:45 1020 30.12 849 25.07 6.9 44.4 82 4.1 39.4
16:50 1020 30.12 849 25.07 7.2 45 82 4.4 39.9
16:55 1020 30.12 849 25.07 7.3 45.1 76 3.4 38.1
17:00 1020 30.12 849 25.07 7.7 45.9 75 3.6 38.4
17:05 1020 30.12 849 25.07 8.1 46.6 77 4.3 39.8
17:10 1020 30.12 849 25.07 8.6 47.4 73 4.1 39.3
17:15 1020 30.12 849 25.07 8.6 47.5 73 4 39.2
17:20 1020 30.12 849 25.07 8.7 47.6 77 4.9 40.9
17:25 1020 30.12 849 25.07 9.3 48.8 67 3.5 38.3
17:30 1020 30.12 849 25.07 9.2 48.6 66 3.3 37.9
17:35 1020 30.12 849 25.07 9.3 48.8 70 4.2 39.5
17:40 1020 30.12 849 25.07 9.6 49.2 68 4 39.2
17:45 1020 30.12 849 25.07 9.7 49.5 67 3.8 38.9
17:50 1020 30.12 849 25.07 9.8 49.7 66 3.8 38.9
17:55 1020 30.12 849 25.07 9.7 49.5 60 2.5 36.4
18:00 1020 30.12 849 25.07 9.6 49.4 60 2.4 36.3
18:05 1020 30.12 849 25.07 9.4 49 61 2.4 36.3
18:10 1020 30.12 849 25.07 9.7 49.4 57 1.6 34.8
18:15 1020 30.12 849 25.07 10 50 61 2.8 37.1
18:20 1020 30.12 849 25.07 10.2 50.3 55 1.7 35
18:25 1020 30.12 849 25.07 10.5 51 53 1.3 34.4
18:30 1020 30.12 849 25.07 10.8 51.4 56 2.3 36.2
18:35 1020 30.12 849 25.07 9.8 49.6 59 2.2 35.9
18:40 1020 30.12 849 25.07 9.2 48.6 61 2.2 36
18:45 1020 30.12 849 25.07 9.7 49.5 62 2.9 37.2
18:50 1020 30.12 849 25.07 9 48.2 62 2.1 35.7
18:55 1020 30.12 849 25.07 9.1 48.4 63 2.5 36.5
19:00 1020 30.12 849 25.07 9.4 48.8 63 2.8 37
19:05 1020 30.12 849 25.07 9.4 48.9 62 2.5 36.5
19:10 1020 30.12 849 25.07 9.4 48.8 62 2.5 36.5
19:15 1020 30.12 849 25.07 9.3 48.8 64 2.9 37.3
19:20 1020 30.12 850 25.1 9.2 48.5 64 2.8 37
19:25 1021 30.15 850 25.1 9 48.1 69 3.6 38.4
19:30 1021 30.15 850 25.1 8.6 47.4 74 4.3 39.7
19:35 1021 30.15 850 25.1 8.1 46.5 76 4.1 39.3
19:40 1021 30.15 850 25.1 7.5 45.5 82 4.7 40.4
19:45 1021 30.15 850 25.1 7.1 44.8 83 4.4 39.8
19:50 1021 30.15 850 25.1 7.1 44.7 83 4.4 39.9
19:55 1021 30.15 850 25.1 7.4 45.3 78 3.8 38.9
20:00 1021 30.15 850 25.1 7.2 45 78 3.6 38.6
20:05 1020 30.12 850 25.1 7.2 44.9 78 3.7 38.6
20:10 1020 30.12 850 25.1 7.2 44.9 79 3.9 39
20:15 1020 30.12 850 25.1 7 44.6 78 3.4 38.2
20:20 1020 30.12 850 25.1 6.9 44.4 78 3.4 38.1
20:25 1020 30.12 850 25.1 6.9 44.4 80 3.6 38.5
20:30 1020 30.12 849 25.07 6.9 44.5 79 3.6 38.4
20:35 1020 30.12 849 25.07 7 44.5 79 3.7 38.6
20:40 1020 30.12 849 25.07 6.9 44.4 80 3.7 38.7
20:45 1020 30.12 849 25.07 6.9 44.4 80 3.6 38.4
20:50 1020 30.12 849 25.07 6.9 44.4 80 3.6 38.5
20:55 1020 30.12 849 25.07 6.8 44.2 80 3.6 38.5
21:00 1020 30.12 849 25.07 6.8 44.3 81 3.8 38.8
21:05 1020 30.12 849 25.07 6.8 44.3 81 3.9 39
21:10 1020 30.12 849 25.07 6.7 44.1 81 3.6 38.5
21:15 1020 30.12 849 25.07 6.6 43.9 81 3.5 38.4
21:20 1020 30.12 849 25.07 6.5 43.7 84 3.9 39
21:25 1020 30.12 849 25.07 6.4 43.5 83 3.8 38.8
21:30 1020 30.12 849 25.07 6.4 43.5 84 3.9 39.1
21:35 1020 30.12 849 25.07 6.2 43.2 86 4 39.3
21:40 1020 30.12 849 25.07 6 42.9 86 4 39.1
21:45 1020 30.12 849 25.07 5.9 42.7 83 3.3 37.9
21:50 1020 30.12 849 25.07 6.2 43.2 80 3 37.3
21:55 1020 30.12 849 25.07 6.4 43.5 79 3.1 37.6
22:00 1020 30.12 849 25.07 6.2 43.2 81 3.2 37.7
22:05 1020 30.12 849 25.07 6 42.7 83 3.3 37.9
22:10 1020 30.12 849 25.07 5.7 42.3 84 3.2 37.8
22:15 1020 30.12 849 25.07 5.7 42.2 85 3.3 37.9
22:20 1020 30.12 849 25.07 5.7 42.2 84 3.2 37.7
22:25 1020 30.12 849 25.07 5.6 42 85 3.2 37.8
22:30 1020 30.12 849 25.07 5.5 41.8 85 3.2 37.7
22:35 1020 30.12 849 25.07 5.4 41.8 86 3.2 37.8
22:40 1020 30.12 849 25.07 5.5 41.8 86 3.3 38
22:45 1020 30.12 849 25.07 5.4 41.6 87 3.3 38
22:50 1020 30.12 849 25.07 5.3 41.5 86 3.2 37.7
22:55 1020 30.12 849 25.07 5.3 41.5 86 3.1 37.5
23:00 1020 30.12 849 25.07 5.2 41.3 86 3 37.4
23:05 1020 30.12 849 25.07 5.2 41.3 85 2.9 37.2
23:10 1020 30.12 849 25.07 5.2 41.4 85 2.9 37.2
23:15 1020 30.12 849 25.07 5.1 41.2 85 2.8 37.1
23:20 1020 30.12 849 25.07 5 41.1 85 2.7 36.9
23:25 1020 30.12 849 25.07 5 41 85 2.8 37
23:30 1020 30.12 849 25.07 5 41 86 2.8 37
23:35 1020 30.12 849 25.07 4.9 40.9 84 2.5 36.5
23:40 1020 30.12 849 25.07 5 41.1 85 2.7 36.8
23:45 1020 30.12 849 25.07 4.9 40.9 84 2.4 36.3
23:50 1020 30.12 849 25.07 4.9 40.8 84 2.4 36.4
23:55 1020 30.12 849 25.07 4.8 40.6 84 2.3 36.2
24:00 1020 30.12 849 25.07 4.7 40.4 84 2.2 36